41.8°F
Current conditions from King Hill
Updated every 5 minutes
 
  Friday October 24, 2014

Station Historical Data
Daily Summary for March 20, 2011 Units:  Metric    English   Both
« Previous Day
Next Day »
Daily Weekly Monthly Yearly Custom
  High: Low: Average:
Temperature: 5.2 °C -8.4 °C -1.6 °C
Dew Point: -7.1 °C -14 °C -10.6 °C
Humidity: 81% 26% 54%
Wind Speed: 9.7km/h 0km/h 3.9km/h
Wind Gust: 14.5km/h - -
Wind- - SW
Pressure: 1037.1 hPa 1029 hPa -
Precipitation: 0 mm    
Historical Graphs
 
 
Tabular Data for March 20, 2011
Time Temperature Dew Point Pressure Wind Wind Speed Wind Gust Humidity Daily Rainfall
00:04 -6.6 °C -10.5 °C 1033.1 hPa Calm     74% 0 mm
00:09 -6.7 °C -10.6 °C 1033.1 hPa Calm     74% 0 mm
00:14 -6.7 °C -10.8 °C 1033.1 hPa Calm   3.2 km/h 73% 0 mm
00:19 -6.4 °C -10.5 °C 1033.1 hPa Calm   3.2 km/h 73% 0 mm
00:24 -6.1 °C -10.4 °C 1033.1 hPa Calm   1.6 km/h 71% 0 mm
00:29 -6.2 °C -10.8 °C 1033.4 hPa Calm     70% 0 mm
00:34 -6.4 °C -10.8 °C 1033.4 hPa Calm     71% 0 mm
00:39 -6.3 °C -10.3 °C 1033.4 hPa Calm     73% 0 mm
00:44 -6.2 °C -10.4 °C 1033.4 hPa Calm     72% 0 mm
00:49 -6.2 °C -10.7 °C 1033.7 hPa Calm     70% 0 mm
00:54 -6.1 °C -10.5 °C 1033.7 hPa Calm     71% 0 mm
00:59 -6.1 °C -10.7 °C 1033.7 hPa Calm     70% 0 mm
01:04 -5.9 °C -10.1 °C 1033.7 hPa Calm   1.6 km/h 72% 0 mm
01:09 -5.7 °C -10.2 °C 1033.7 hPa Calm   1.6 km/h 71% 0 mm
01:14 -5.8 °C -10.2 °C 1033.7 hPa Calm   1.6 km/h 71% 0 mm
01:19 -6 °C -10.6 °C 1033.7 hPa Calm     70% 0 mm
01:24 -6.2 °C -10.7 °C 1034.1 hPa Calm     70% 0 mm
01:29 -6.3 °C -10.8 °C 1034.1 hPa Calm     70% 0 mm
01:34 -6.4 °C -10.9 °C 1034.1 hPa Calm     70% 0 mm
01:39 -6.5 °C -10.9 °C 1034.1 hPa Calm     71% 0 mm
01:44 -6.7 °C -10.9 °C 1034.4 hPa Calm     72% 0 mm
01:49 -6.8 °C -11 °C 1034.4 hPa Calm     72% 0 mm
01:54 -6.6 °C -11 °C 1034.4 hPa Calm     71% 0 mm
01:59 -6.7 °C -11.1 °C 1034.4 hPa Calm     71% 0 mm
02:04 -6.7 °C -10.8 °C 1034.4 hPa Calm     73% 0 mm
02:09 -6.8 °C -10.8 °C 1034.4 hPa Calm     73% 0 mm
02:14 -6.8 °C -10.8 °C 1034.4 hPa Calm     73% 0 mm
02:19 -6.8 °C -10.8 °C 1034.8 hPa NE 1.6 km/h 1.6 km/h 73% 0 mm
02:24 -6.7 °C -10.7 °C 1034.4 hPa Calm   1.6 km/h 73% 0 mm
02:29 -6.3 °C -10.6 °C 1034.4 hPa Calm   1.6 km/h 72% 0 mm
02:34 -6.5 °C -10.7 °C 1034.4 hPa Calm     72% 0 mm
02:39 -6.8 °C -10.8 °C 1034.8 hPa Calm     73% 0 mm
02:44 -7 °C -10.8 °C 1034.8 hPa Calm     74% 0 mm
02:49 -7.2 °C -10.9 °C 1034.8 hPa Calm     75% 0 mm
02:54 -7.4 °C -11.1 °C 1034.8 hPa Calm     75% 0 mm
02:59 -7.4 °C -11.1 °C 1034.8 hPa Calm     75% 0 mm
03:04 -7.3 °C -11 °C 1034.8 hPa Calm     75% 0 mm
03:09 -7.5 °C -11 °C 1035.1 hPa Calm     76% 0 mm
03:15 -7.4 °C -10.9 °C 1034.8 hPa Calm     76% 0 mm
03:19 -7.1 °C -10.7 °C 1034.8 hPa Calm   1.6 km/h 75% 0 mm
03:24 -6.8 °C -10.8 °C 1034.8 hPa Calm   1.6 km/h 73% 0 mm
03:29 -6.8 °C -10.8 °C 1034.8 hPa Calm   1.6 km/h 73% 0 mm
03:39 -6.2 °C -10.4 °C 1034.8 hPa Calm     72% 0 mm
03:44 -6 °C -10.2 °C 1034.8 hPa Calm     72% 0 mm
03:49 -6.2 °C -10.4 °C 1034.8 hPa Calm     72% 0 mm
03:55 -6.4 °C -10.7 °C 1034.8 hPa Calm     72% 0 mm
04:04 -7.1 °C -10.7 °C 1034.8 hPa Calm     75% 0 mm
04:09 -7.3 °C -10.9 °C 1034.8 hPa Calm     75% 0 mm
04:14 -7.4 °C -10.9 °C 1034.8 hPa Calm     76% 0 mm
04:19 -7.5 °C -11 °C 1034.8 hPa Calm     76% 0 mm
04:24 -7.4 °C -10.8 °C 1034.8 hPa Calm     77% 0 mm
04:29 -7.5 °C -10.8 °C 1035.1 hPa Calm     77% 0 mm
04:35 -7.7 °C -11.1 °C 1035.1 hPa Calm   1.6 km/h 77% 0 mm
04:44 -7.8 °C -11 °C 1035.1 hPa Calm   1.6 km/h 78% 0 mm
04:49 -7.7 °C -10.8 °C 1035.1 hPa Calm     78% 0 mm
04:54 -7.3 °C -10.4 °C 1035.1 hPa Calm     78% 0 mm
04:59 -7.3 °C -10.6 °C 1035.4 hPa Calm     77% 0 mm
05:04 -7.7 °C -11 °C 1035.4 hPa Calm     77% 0 mm
05:09 -7.9 °C -11.1 °C 1035.4 hPa Calm     78% 0 mm
05:14 -7.9 °C -10.9 °C 1035.4 hPa Calm   1.6 km/h 79% 0 mm
05:19 -8 °C -11 °C 1035.4 hPa Calm   1.6 km/h 79% 0 mm
05:24 -8.1 °C -10.9 °C 1035.4 hPa Calm     80% 0 mm
05:29 -8.1 °C -10.9 °C 1035.8 hPa Calm     80% 0 mm
05:34 -8.2 °C -11.2 °C 1035.8 hPa Calm     79% 0 mm
05:39 -8.4 °C -11.2 °C 1035.8 hPa Calm     80% 0 mm
05:44 -8.4 °C -11.2 °C 1035.8 hPa Calm     80% 0 mm
05:49 -8.3 °C -11.1 °C 1035.8 hPa Calm     80% 0 mm
05:54 -8.1 °C -10.7 °C 1035.8 hPa Calm     81% 0 mm
05:59 -7.9 °C -10.7 °C 1036.1 hPa Calm     80% 0 mm
06:04 -7.9 °C -10.7 °C 1036.1 hPa Calm     80% 0 mm
06:09 -7.6 °C -10.6 °C 1036.1 hPa Calm     79% 0 mm
06:14 -6.8 °C -10 °C 1036.1 hPa Calm     78% 0 mm
06:19 -6.5 °C -10.1 °C 1036.1 hPa Calm     76% 0 mm
06:24 -6.3 °C -10.1 °C 1036.5 hPa Calm     75% 0 mm
06:30 -6.1 °C -9.7 °C 1036.5 hPa Calm   1.6 km/h 76% 0 mm
06:34 -5.9 °C -9.6 °C 1036.5 hPa Calm   1.6 km/h 75% 0 mm
06:39 -5.9 °C -9.7 °C 1036.5 hPa Calm   1.6 km/h 75% 0 mm
06:44 -5.8 °C -9.5 °C 1036.1 hPa Calm   1.6 km/h 75% 0 mm
06:49 -5.9 °C -9.8 °C 1036.5 hPa Calm     74% 0 mm
06:54 -6.2 °C -10.1 °C 1036.5 hPa Calm     74% 0 mm
06:59 -6.3 °C -10 °C 1036.5 hPa Calm     75% 0 mm
07:04 -6.3 °C -10 °C 1036.5 hPa Calm     75% 0 mm
07:09 -6.4 °C -10.5 °C 1036.5 hPa Calm     73% 0 mm
07:14 -7.1 °C -10.7 °C 1036.5 hPa Calm     75% 0 mm
07:19 -7.4 °C -11.1 °C 1036.5 hPa Calm     75% 0 mm
07:24 -7.7 °C -11 °C 1036.5 hPa Calm     77% 0 mm
07:29 -7.8 °C -10.9 °C 1036.5 hPa Calm     78% 0 mm
07:35 -7.8 °C -10.8 °C 1036.5 hPa Calm     79% 0 mm
07:44 -7.4 °C -10.3 °C 1036.5 hPa Calm     80% 0 mm
07:49 -7.4 °C -10.4 °C 1036.5 hPa Calm     79% 0 mm
07:54 -7.4 °C -10.4 °C 1036.5 hPa Calm     79% 0 mm
08:04 -7.1 °C -10.1 °C 1036.5 hPa Calm     79% 0 mm
08:09 -7 °C -10.2 °C 1036.5 hPa Calm     78% 0 mm
08:14 -6.8 °C -9.9 °C 1036.8 hPa Calm     78% 0 mm
08:19 -6.6 °C -9.9 °C 1036.5 hPa Calm     77% 0 mm
08:24 -6.4 °C -9.9 °C 1036.5 hPa Calm     76% 0 mm
08:29 -6.1 °C -10 °C 1036.5 hPa Calm     74% 0 mm
08:34 -5.7 °C -9.8 °C 1036.8 hPa Calm     73% 0 mm
08:39 -5 °C -9.3 °C 1036.8 hPa Calm     72% 0 mm
08:44 -3.8 °C -8.5 °C 1036.8 hPa Calm     70% 0 mm
08:49 -2.9 °C -8.4 °C 1036.5 hPa Calm     66% 0 mm
08:55 -2.4 °C -8.3 °C 1036.8 hPa Calm     64% 0 mm
08:59 -1.6 °C -7.9 °C 1036.8 hPa Calm     62% 0 mm
09:04 -0.7 °C -7.9 °C 1036.8 hPa Calm     58% 0 mm
09:09 0.2 °C -8.1 °C 1036.8 hPa Calm     54% 0 mm
09:14 0.6 °C -8.4 °C 1036.8 hPa Calm     51% 0 mm
09:19 0.7 °C -8.8 °C 1036.8 hPa Calm     49% 0 mm
09:24 0.9 °C -10.8 °C 1036.8 hPa Calm     41% 0 mm
09:29 0.9 °C -11.8 °C 1036.8 hPa Calm   3.2 km/h 38% 0 mm
09:34 1.1 °C -11.7 °C 1037.1 hPa Calm   3.2 km/h 38% 0 mm
09:39 0.7 °C -12.1 °C 1037.1 hPa NE 1.6 km/h 3.2 km/h 38% 0 mm
09:44 0.8 °C -10.7 °C 1037.1 hPa Calm   3.2 km/h 42% 0 mm
09:49 1 °C -10.5 °C 1036.8 hPa Calm   3.2 km/h 42% 0 mm
09:54 0.8 °C -10.7 °C 1037.1 hPa Calm   3.2 km/h 42% 0 mm
09:59 0.8 °C -10.1 °C 1037.1 hPa Calm   1.6 km/h 44% 0 mm
10:04 0.9 °C -9.7 °C 1037.1 hPa Calm   3.2 km/h 45% 0 mm
10:09 1 °C -9.9 °C 1037.1 hPa Calm   3.2 km/h 44% 0 mm
10:14 1.1 °C -9.8 °C 1037.1 hPa Calm   3.2 km/h 44% 0 mm
10:19 1.1 °C -9.8 °C 1037.1 hPa NE 1.6 km/h 4.8 km/h 44% 0 mm
10:24 0.8 °C -10.3 °C 1037.1 hPa NE 1.6 km/h 4.8 km/h 43% 0 mm
10:29 0.9 °C -10 °C 1037.1 hPa NE 1.6 km/h 4.8 km/h 44% 0 mm
10:34 0.9 °C -9.9 °C 1037.1 hPa Calm   4.8 km/h 44% 0 mm
10:39 1 °C -10.5 °C 1036.8 hPa Calm   4.8 km/h 42% 0 mm
10:44 0.9 °C -10.6 °C 1036.8 hPa Calm   4.8 km/h 42% 0 mm
10:49 1 °C -10.2 °C 1036.8 hPa North 1.6 km/h 4.8 km/h 43% 0 mm
10:54 1.2 °C -10.1 °C 1037.1 hPa Calm   6.4 km/h 43% 0 mm
10:59 1 °C -11.4 °C 1036.8 hPa Calm   6.4 km/h 39% 0 mm
11:04 1.3 °C -11.1 °C 1036.8 hPa Calm   4.8 km/h 39% 0 mm
11:09 1.6 °C -10.9 °C 1036.8 hPa Calm   4.8 km/h 39% 0 mm
11:14 1.7 °C -11.4 °C 1036.8 hPa NNW 1.6 km/h 4.8 km/h 37% 0 mm
11:19 1.8 °C -11.4 °C 1036.8 hPa Calm   4.8 km/h 37% 0 mm
11:24 1.6 °C -12.2 °C 1036.8 hPa Calm   4.8 km/h 35% 0 mm
11:29 1.5 °C -12.3 °C 1036.8 hPa Calm   4.8 km/h 35% 0 mm
11:34 1.5 °C -11.9 °C 1036.8 hPa Calm     36% 0 mm
11:39 2 °C -11.5 °C 1036.5 hPa Calm   6.4 km/h 36% 0 mm
11:44 2.2 °C -11.1 °C 1036.5 hPa Calm   6.4 km/h 37% 0 mm
11:49 2.2 °C -11.7 °C 1036.5 hPa ENE 1.6 km/h 6.4 km/h 35% 0 mm
11:54 2.4 °C -11.1 °C 1036.5 hPa Calm   6.4 km/h 36% 0 mm
11:59 2.4 °C -11.5 °C 1036.1 hPa Calm   6.4 km/h 35% 0 mm
12:04 2.7 °C -11.2 °C 1036.1 hPa ENE 4.8 km/h 8 km/h 35% 0 mm
12:09 2.4 °C -11.8 °C 1036.1 hPa ENE 3.2 km/h 8 km/h 34% 0 mm
12:14 2.2 °C -11.3 °C 1036.1 hPa North 1.6 km/h 8 km/h 36% 0 mm
12:19 2.2 °C -11.7 °C 1036.1 hPa Calm   6.4 km/h 35% 0 mm
12:24 2.4 °C -11.5 °C 1036.1 hPa NNE 1.6 km/h 6.4 km/h 35% 0 mm
12:30 2.4 °C -11.1 °C 1036.1 hPa NNE 1.6 km/h 4.8 km/h 36% 0 mm
12:34 2.3 °C -11.9 °C 1035.8 hPa SW 4.8 km/h 8 km/h 34% 0 mm
12:39 2.2 °C -12.1 °C 1035.8 hPa NW 3.2 km/h 11.3 km/h 34% 0 mm
12:44 2.4 °C -11.5 °C 1035.8 hPa Calm   11.3 km/h 35% 0 mm
12:49 2.3 °C -11.6 °C 1035.4 hPa WSW 4.8 km/h 11.3 km/h 35% 0 mm
12:54 2.2 °C -12.1 °C 1035.4 hPa SW 4.8 km/h 11.3 km/h 34% 0 mm
12:59 2.2 °C -12.4 °C 1035.4 hPa Calm   9.7 km/h 33% 0 mm
13:04 2.3 °C -12.3 °C 1035.4 hPa WSW 6.4 km/h 8 km/h 33% 0 mm
13:09 2.3 °C -12 °C 1035.4 hPa SSW 8 km/h 11.3 km/h 34% 0 mm
13:14 2.3 °C -11.9 °C 1035.4 hPa WNW 6.4 km/h 11.3 km/h 34% 0 mm
13:19 2.4 °C -13.4 °C 1035.4 hPa SSW 3.2 km/h 11.3 km/h 30% 0 mm
13:24 2.6 °C -12.1 °C 1035.4 hPa South 4.8 km/h 9.7 km/h 33% 0 mm
13:29 2.6 °C -12.4 °C 1035.4 hPa West 6.4 km/h 11.3 km/h 32% 0 mm
13:34 2.7 °C -13.2 °C 1035.1 hPa WNW 3.2 km/h 11.3 km/h 30% 0 mm
13:44 2.4 °C -13 °C 1035.1 hPa WNW 6.4 km/h 12.9 km/h 31% 0 mm
13:49 2.6 °C -12.9 °C 1035.1 hPa NW 3.2 km/h 12.9 km/h 31% 0 mm
13:54 3 °C -12.5 °C 1035.1 hPa West 1.6 km/h 6.4 km/h 31% 0 mm
13:59 2.9 °C -12.9 °C 1035.1 hPa WNW 6.4 km/h 12.9 km/h 30% 0 mm
14:04 2.7 °C -14 °C 1034.8 hPa West 6.4 km/h 12.9 km/h 28% 0 mm
14:09 2.6 °C -13.7 °C 1034.8 hPa West 8 km/h 14.5 km/h 29% 0 mm
14:14 2.7 °C -13.6 °C 1034.8 hPa WNW 9.7 km/h 14.5 km/h 29% 0 mm
14:19 2.8 °C -13.1 °C 1034.4 hPa West 4.8 km/h 14.5 km/h 30% 0 mm
14:24 3.1 °C -12.1 °C 1034.4 hPa WSW 6.4 km/h 12.9 km/h 32% 0 mm
14:29 3 °C -12.9 °C 1034.4 hPa West 8 km/h 11.3 km/h 30% 0 mm
14:34 3.1 °C -13.7 °C 1034.4 hPa Calm   11.3 km/h 28% 0 mm
14:39 3.3 °C -12.2 °C 1034.4 hPa WSW 1.6 km/h 9.7 km/h 31% 0 mm
14:44 3.7 °C -12.7 °C 1034.1 hPa Calm   8 km/h 29% 0 mm
14:49 3.8 °C -13.5 °C 1034.1 hPa Calm   8 km/h 27% 0 mm
14:54 3.9 °C -13.8 °C 1034.1 hPa WNW 3.2 km/h 6.4 km/h 26% 0 mm
14:59 3.9 °C -13.4 °C 1034.1 hPa WSW 3.2 km/h 11.3 km/h 27% 0 mm
15:04 3.9 °C -12.6 °C 1034.1 hPa West 6.4 km/h 11.3 km/h 29% 0 mm
15:09 3.9 °C -12.5 °C 1034.1 hPa NW 3.2 km/h 11.3 km/h 29% 0 mm
15:14 4.2 °C -13.2 °C 1034.1 hPa NW 4.8 km/h 9.7 km/h 27% 0 mm
15:19 4.2 °C -13.7 °C 1034.1 hPa Calm   9.7 km/h 26% 0 mm
15:24 4.5 °C -13.4 °C 1033.7 hPa Calm   6.4 km/h 26% 0 mm
15:30 4.7 °C -13.2 °C 1033.7 hPa West 1.6 km/h 6.4 km/h 26% 0 mm
15:35 4.7 °C -12.8 °C 1033.7 hPa SSW 1.6 km/h 6.4 km/h 27% 0 mm
15:39 4.6 °C -12.4 °C 1033.7 hPa WSW 4.8 km/h 9.7 km/h 28% 0 mm
15:44 4.4 °C -13 °C 1033.7 hPa Calm   9.7 km/h 27% 0 mm
15:49 4.4 °C -12.9 °C 1033.7 hPa Calm   4.8 km/h 27% 0 mm
15:54 4.4 °C -12.5 °C 1033.7 hPa Calm   4.8 km/h 28% 0 mm
15:59 4.6 °C -12.8 °C 1033.7 hPa WSW 1.6 km/h 4.8 km/h 27% 0 mm
16:04 4.6 °C -12.4 °C 1033.4 hPa WNW 8 km/h 9.7 km/h 28% 0 mm
16:09 4.4 °C -12.5 °C 1033.4 hPa NW 4.8 km/h 12.9 km/h 28% 0 mm
16:14 4.6 °C -12.4 °C 1033.4 hPa NW 4.8 km/h 12.9 km/h 28% 0 mm
16:19 4.4 °C -12.9 °C 1033.7 hPa WNW 1.6 km/h 9.7 km/h 27% 0 mm
16:24 4.8 °C -12.2 °C 1033.7 hPa Calm   9.7 km/h 28% 0 mm
16:29 5 °C -11.6 °C 1033.4 hPa West 6.4 km/h 11.3 km/h 29% 0 mm
16:34 4.8 °C -11.8 °C 1033.7 hPa Calm   11.3 km/h 29% 0 mm
16:39 4.9 °C -11.6 °C 1033.7 hPa Calm   9.7 km/h 29% 0 mm
16:44 5 °C -11.6 °C 1033.7 hPa WNW 1.6 km/h 6.4 km/h 29% 0 mm
16:49 5.1 °C -11.9 °C 1033.7 hPa Calm   6.4 km/h 28% 0 mm
16:55 5.2 °C -10.6 °C 1033.4 hPa WNW 6.4 km/h 11.3 km/h 31% 0 mm
17:04 5.2 °C -11.9 °C 1033.4 hPa WNW 1.6 km/h 4.8 km/h 28% 0 mm
17:09 5.2 °C -11.9 °C 1033.4 hPa WNW 3.2 km/h 6.4 km/h 28% 0 mm
17:14 5.1 °C -11.9 °C 1033.4 hPa Calm   6.4 km/h 28% 0 mm
17:19 4.8 °C -11.7 °C 1033.4 hPa WNW 1.6 km/h 8 km/h 29% 0 mm
17:24 4.9 °C -11.2 °C 1033.4 hPa WNW 1.6 km/h 8 km/h 30% 0 mm
17:29 4.8 °C -10.9 °C 1033.4 hPa WNW 3.2 km/h 8 km/h 31% 0 mm
17:35 4.5 °C -10 °C 1033.4 hPa NW 1.6 km/h 8 km/h 34% 0 mm
17:39 4.3 °C -10.6 °C 1033.4 hPa Calm   8 km/h 33% 0 mm
17:44 4.3 °C -9.8 °C 1033.4 hPa Calm   6.4 km/h 35% 0 mm
17:49 4.2 °C -10.7 °C 1033.1 hPa Calm   3.2 km/h 33% 0 mm
17:54 3.9 °C -10.5 °C 1033.4 hPa NNW 1.6 km/h 6.4 km/h 34% 0 mm
17:59 3.7 °C -10.1 °C 1033.1 hPa Calm   6.4 km/h 36% 0 mm
18:04 3.4 °C -9.9 °C 1033.1 hPa Calm   3.2 km/h 37% 0 mm
18:09 3.3 °C -10.1 °C 1033.1 hPa Calm   3.2 km/h 37% 0 mm
18:14 3.2 °C -10.1 °C 1033.1 hPa Calm   3.2 km/h 37% 0 mm
18:19 3.2 °C -9.8 °C 1033.1 hPa Calm   1.6 km/h 38% 0 mm
18:24 2.9 °C -10.3 °C 1033.1 hPa Calm   1.6 km/h 37% 0 mm
18:29 2.7 °C -10.2 °C 1033.1 hPa Calm   3.2 km/h 38% 0 mm
18:34 2.4 °C -8.3 °C 1033.1 hPa Calm   3.2 km/h 45% 0 mm
18:39 2.1 °C -9.8 °C 1032.7 hPa Calm   1.6 km/h 41% 0 mm
18:44 1.7 °C -8.9 °C 1032.7 hPa Calm     45% 0 mm
18:49 1.3 °C -8.5 °C 1032.7 hPa Calm     48% 0 mm
18:54 0.9 °C -9.2 °C 1032.7 hPa Calm     47% 0 mm
18:59 0.5 °C -8.7 °C 1032.7 hPa Calm     50% 0 mm
19:04 0.2 °C -8.8 °C 1032.7 hPa Calm     51% 0 mm
19:09 -0.1 °C -8.7 °C 1032.7 hPa Calm     52% 0 mm
19:14 -0.2 °C -9.3 °C 1033.1 hPa Calm     50% 0 mm
19:19 -0.2 °C -9.3 °C 1033.1 hPa Calm     50% 0 mm
19:24 -0.2 °C -9.3 °C 1033.1 hPa Calm     50% 0 mm
19:30 -0.2 °C -9.2 °C 1032.7 hPa Calm     51% 0 mm
19:34 -0.3 °C -8.7 °C 1032.7 hPa Calm   1.6 km/h 53% 0 mm
19:39 -0.3 °C -10 °C 1032.7 hPa Calm   1.6 km/h 48% 0 mm
19:44 -0.3 °C -8.5 °C 1032.7 hPa Calm   1.6 km/h 54% 0 mm
19:49 -0.4 °C -9.1 °C 1032.7 hPa Calm   3.2 km/h 52% 0 mm
19:54 -0.4 °C -9.1 °C 1032.7 hPa Calm   3.2 km/h 52% 0 mm
19:59 -0.4 °C -8.8 °C 1032.4 hPa Calm   3.2 km/h 53% 0 mm
20:04 -0.6 °C -8.7 °C 1032.4 hPa Calm   1.6 km/h 54% 0 mm
20:09 -0.6 °C -9.2 °C 1032.4 hPa NNW 1.6 km/h 3.2 km/h 52% 0 mm
20:14 -0.6 °C -8.7 °C 1032.4 hPa Calm   4.8 km/h 54% 0 mm
20:19 -0.6 °C -8.7 °C 1032.1 hPa Calm   4.8 km/h 54% 0 mm
20:24 -0.6 °C -8.5 °C 1032.1 hPa Calm   4.8 km/h 55% 0 mm
20:29 -0.6 °C -8.3 °C 1032.1 hPa Calm   4.8 km/h 56% 0 mm
20:34 -0.6 °C -8.3 °C 1032.1 hPa Calm   3.2 km/h 56% 0 mm
20:39 -0.7 °C -8.6 °C 1032.1 hPa Calm   1.6 km/h 55% 0 mm
20:44 -0.7 °C -8.6 °C 1032.1 hPa Calm   1.6 km/h 55% 0 mm
20:49 -0.8 °C -8.4 °C 1032.1 hPa Calm   1.6 km/h 56% 0 mm
20:54 -0.8 °C -8.9 °C 1031.7 hPa Calm   4.8 km/h 54% 0 mm
20:59 -0.8 °C -9.7 °C 1031.7 hPa Calm   4.8 km/h 51% 0 mm
21:04 -0.8 °C -8.2 °C 1031.7 hPa Calm   1.6 km/h 57% 0 mm
21:09 -0.8 °C -8.3 °C 1031.7 hPa Calm   1.6 km/h 57% 0 mm
21:14 -0.9 °C -8.4 °C 1031.7 hPa Calm     57% 0 mm
21:19 -1.1 °C -8.5 °C 1031.7 hPa Calm     57% 0 mm
21:24 -1.3 °C -8.1 °C 1031.7 hPa Calm     60% 0 mm
21:29 -1.6 °C -8.7 °C 1031.7 hPa Calm     58% 0 mm
21:34 -1.7 °C -9.3 °C 1031.7 hPa Calm     56% 0 mm
21:44 -1.6 °C -8.8 °C 1031.7 hPa Calm     58% 0 mm
21:49 -1.7 °C -9.1 °C 1031.4 hPa Calm     57% 0 mm
21:54 -1.7 °C -8.4 °C 1031.4 hPa Calm     60% 0 mm
21:59 -1.7 °C -9.3 °C 1031.4 hPa Calm   1.6 km/h 56% 0 mm
22:04 -1.6 °C -9 °C 1031.4 hPa Calm   1.6 km/h 57% 0 mm
22:09 -1.6 °C -8.7 °C 1031 hPa Calm     58% 0 mm
22:14 -1.4 °C -8.7 °C 1031 hPa Calm     58% 0 mm
22:19 -1.4 °C -9.1 °C 1031 hPa Calm   1.6 km/h 56% 0 mm
22:24 -1.4 °C -8 °C 1031 hPa Calm   1.6 km/h 61% 0 mm
22:29 -1.5 °C -7.4 °C 1031 hPa Calm     64% 0 mm
22:34 -1.6 °C -8.4 °C 1030.7 hPa Calm     60% 0 mm
22:39 -1.5 °C -8.7 °C 1030.7 hPa Calm     58% 0 mm
22:44 -1.4 °C -7.1 °C 1030.7 hPa Calm     65% 0 mm
22:49 -1.2 °C -8 °C 1030.7 hPa Calm     60% 0 mm
22:54 -1.2 °C -8.2 °C 1030.4 hPa Calm     59% 0 mm
22:59 -1.3 °C -8.8 °C 1030.4 hPa Calm     57% 0 mm
23:04 -1.4 °C -8.9 °C 1030.4 hPa Calm     57% 0 mm
23:09 -1.6 °C -9.2 °C 1030.4 hPa Calm     56% 0 mm
23:14 -1.6 °C -9.5 °C 1030.4 hPa Calm     55% 0 mm
23:19 -1.6 °C -8.6 °C 1030 hPa Calm     59% 0 mm
23:24 -1.7 °C -9.3 °C 1030 hPa Calm     56% 0 mm
23:29 -1.7 °C -8.8 °C 1030 hPa Calm     58% 0 mm
23:34 -1.6 °C -8.8 °C 1029.7 hPa Calm     58% 0 mm
23:39 -1.6 °C -8.4 °C 1029.7 hPa Calm     60% 0 mm
23:44 -1.7 °C -9.1 °C 1029.3 hPa Calm     57% 0 mm
23:49 -1.7 °C -8.9 °C 1029.3 hPa Calm   1.6 km/h 58% 0 mm
23:54 -1.7 °C -8.7 °C 1029 hPa Calm   1.6 km/h 59% 0 mm
23:59 -1.7 °C -8.3 °C 1029 hPa Calm   4.8 km/h 61% 0 mm
Westford Weather
Compliments of Weather Underground

 
 
Current Radar Loop:

Copyright © WestfordWeather.net 2007-2014. All rights reserved.